Time;durP1;ratioP1;P1;durP2;ratioP2;P2;SDS_P1;SDS_P2;PMS_P1;PMS_P2;Temp;Humidity;BMP_temperature;BMP_pressure;BME280_temperature;BME280_humidity;BME280_pressure;Samples;Min_cycle;Max_cycle;Signal;HPM_P1;HPM_P2
2023/03/29 00:00:50;;;;;;;2.70;1.52;;;;;;;-0.55;76.38;99479.62;4484669;31;20171;-69
2023/03/29 00:03:18;;;;;;;6.18;1.45;;;;;;;-0.51;76.11;99482.13;4485099;31;20143;-69
2023/03/29 00:05:46;;;;;;;4.72;1.45;;;;;;;-0.60;76.45;99488.41;4484782;31;20167;-69
2023/03/29 00:08:13;;;;;;;2.83;1.40;;;;;;;-0.62;76.77;99474.72;4484753;31;20433;-69
2023/03/29 00:10:41;;;;;;;3.28;1.33;;;;;;;-0.61;76.64;99473.84;4484656;32;20130;-69
2023/03/29 00:13:08;;;;;;;4.68;1.33;;;;;;;-0.66;76.92;99468.84;4484858;31;20172;-69
2023/03/29 00:15:35;;;;;;;2.70;1.23;;;;;;;-0.77;76.99;99471.78;4484856;31;20151;-69
2023/03/29 00:18:04;;;;;;;3.15;1.17;;;;;;;-0.78;77.42;99469.25;4484551;31;20091;-69
2023/03/29 00:20:32;;;;;;;1.65;1.02;;;;;;;-0.83;77.92;99464.25;4484448;31;20159;-69
2023/03/29 00:22:59;;;;;;;6.12;1.42;;;;;;;-0.78;77.88;99475.22;4484532;31;20165;-69
2023/03/29 00:25:26;;;;;;;3.35;1.37;;;;;;;-0.90;78.11;99466.16;4483321;32;20101;-69
2023/03/29 00:27:53;;;;;;;2.08;1.20;;;;;;;-0.80;78.00;99471.00;4484646;31;20096;-69
2023/03/29 00:30:22;;;;;;;3.58;1.50;;;;;;;-0.79;77.91;99471.00;4484335;31;20111;-69
2023/03/29 00:32:50;;;;;;;2.15;1.10;;;;;;;-0.77;77.77;99461.47;4484566;32;20100;-69
2023/03/29 00:35:18;;;;;;;3.87;1.30;;;;;;;-0.72;77.41;99469.88;4484787;32;20366;-69
2023/03/29 00:37:49;;;;;;;3.47;1.00;;;;;;;-0.75;77.23;99466.56;4483131;32;20148;-69
2023/03/29 00:40:17;;;;;;;2.67;1.37;;;;;;;-0.72;77.04;99471.62;4483483;32;20112;-69
2023/03/29 00:42:45;;;;;;;2.37;1.50;;;;;;;-0.77;77.34;99460.66;4484392;31;20110;-69
2023/03/29 00:45:12;;;;;;;9.63;2.17;;;;;;;-0.84;77.48;99459.16;4484479;31;20399;-68
2023/03/29 00:47:45;;;;;;;2.83;1.33;;;;;;;-0.95;78.13;99457.75;4484402;31;20119;-68
2023/03/29 00:50:15;;;;;;;5.22;1.87;;;;;;;-0.91;78.41;99459.34;4484361;31;20159;-68
2023/03/29 00:52:46;;;;;;;4.10;1.77;;;;;;;-0.95;78.86;99460.31;4484626;31;20576;-68
2023/03/29 00:55:17;;;;;;;3.85;1.30;;;;;;;-0.93;78.51;99462.84;4483224;32;20214;-68
2023/03/29 00:57:45;;;;;;;2.90;1.45;;;;;;;-0.97;78.55;99454.41;4483027;32;20172;-68
2023/03/29 01:00:16;;;;;;;4.12;1.50;;;;;;;-1.05;78.89;99458.09;4483003;32;20099;-68
2023/03/29 01:02:49;;;;;;;7.37;1.90;;;;;;;-1.03;78.92;99454.59;4482858;32;20140;-68
2023/03/29 01:05:39;;;;;;;4.12;1.80;;;;;;;-1.03;78.76;99453.72;4483335;32;20476;-68
2023/03/29 01:08:10;;;;;;;2.10;1.33;;;;;;;-1.16;79.60;99448.12;4483095;32;20127;-68
2023/03/29 01:10:44;;;;;;;2.47;1.65;;;;;;;-1.14;79.68;99438.63;4484398;31;20104;-68
2023/03/29 01:13:17;;;;;;;2.58;1.50;;;;;;;-1.14;79.79;99436.91;4483028;32;20111;-68
2023/03/29 01:15:45;;;;;;;2.35;1.40;;;;;;;-1.21;80.10;99437.13;4468656;32;20135;-68
2023/03/29 01:18:14;;;;;;;4.45;1.25;;;;;;;-1.32;80.89;99437.47;4467212;32;20112;-68
2023/03/29 01:20:45;;;;;;;2.12;1.05;;;;;;;-1.38;80.89;99428.19;4466912;32;20097;-68
2023/03/29 01:23:25;;;;;;;3.05;1.45;;;;;;;-1.32;80.74;99434.88;4468225;32;20574;-68
2023/03/29 01:26:25;;;;;;;6.00;1.77;;;;;;;-1.36;81.04;99425.56;4468034;32;20105;-68
2023/03/29 01:29:12;;;;;;;4.05;1.55;;;;;;;-1.40;80.49;99427.41;4468215;32;20085;-68
2023/03/29 01:32:04;;;;;;;3.25;2.05;;;;;;;-1.40;80.17;99426.56;4467036;32;20096;-68
2023/03/29 01:34:31;;;;;;;2.83;1.50;;;;;;;-1.37;80.40;99424.75;4468123;32;20149;-68
2023/03/29 01:37:06;;;;;;;2.40;1.17;;;;;;;-1.40;80.49;99435.13;4467970;32;20092;-68
2023/03/29 01:39:34;;;;;;;7.32;2.78;;;;;;;-1.42;80.28;99431.75;4468004;32;20155;-68
2023/03/29 01:42:16;;;;;;;7.32;2.03;;;;;;;-1.44;80.53;99424.09;4467803;32;20084;-68
2023/03/29 01:44:51;;;;;;;3.10;1.62;;;;;;;-1.38;80.03;99424.78;4466618;32;20103;-68
2023/03/29 01:47:20;;;;;;;7.80;1.65;;;;;;;-1.42;79.80;99426.62;4467865;32;20144;-68
2023/03/29 01:50:06;;;;;;;2.72;1.50;;;;;;;-1.36;79.68;99417.88;4470077;32;20097;-68
2023/03/29 01:52:37;;;;;;;1.85;1.35;;;;;;;-1.40;79.66;99419.69;4470054;32;20085;-68
2023/03/29 01:55:09;;;;;;;3.12;1.37;;;;;;;-1.34;79.46;99422.09;4468833;32;20089;-68
2023/03/29 01:57:39;;;;;;;2.03;1.30;;;;;;;-1.36;79.08;99418.72;4470313;32;20089;-68
2023/03/29 02:00:09;;;;;;;4.25;1.40;;;;;;;-1.31;79.20;99422.00;4468659;32;20120;-67
2023/03/29 02:02:40;;;;;;;3.22;1.35;;;;;;;-1.30;78.75;99421.13;4468797;32;20088;-67
2023/03/29 02:05:09;;;;;;;3.50;1.10;;;;;;;-1.28;78.71;99427.03;4468734;32;20156;-68
2023/03/29 02:07:37;;;;;;;3.37;1.40;;;;;;;-1.22;78.10;99422.63;4470146;32;20145;-67
2023/03/29 02:10:06;;;;;;;4.62;1.30;;;;;;;-1.34;78.44;99421.25;4469956;32;20127;-67
2023/03/29 02:12:34;;;;;;;4.28;1.58;;;;;;;-1.35;78.71;99422.97;4482266;32;20108;-68
2023/03/29 02:15:05;;;;;;;2.58;1.50;;;;;;;-1.29;78.53;99425.38;4485598;31;20100;-67
2023/03/29 02:17:33;;;;;;;3.35;1.30;;;;;;;-1.36;78.66;99426.44;4485745;31;20502;-67
2023/03/29 02:20:21;;;;;;;2.15;1.20;;;;;;;-1.38;78.59;99433.34;4485533;31;20096;-67
2023/03/29 02:23:01;;;;;;;1.25;0.80;;;;;;;-1.30;78.56;99426.25;4485356;31;20111;-67
2023/03/29 02:25:28;;;;;;;1.95;1.12;;;;;;;-1.35;78.69;99417.00;4485828;31;20103;-67
2023/03/29 02:27:56;;;;;;;3.75;1.62;;;;;;;-1.41;79.01;99419.75;4484337;32;20523;-67
2023/03/29 02:30:27;;;;;;;5.05;1.85;;;;;;;-1.49;79.37;99418.25;4485212;31;20097;-67
2023/03/29 02:33:00;;;;;;;1.83;1.37;;;;;;;-1.63;79.97;99418.66;4485849;32;20115;-67
2023/03/29 02:35:35;;;;;;;4.40;1.55;;;;;;;-1.66;80.51;99418.72;4484352;32;20099;-67
2023/03/29 02:38:05;;;;;;;3.15;1.45;;;;;;;-1.61;80.50;99421.16;4484358;32;20123;-67
2023/03/29 02:40:36;;;;;;;3.78;1.40;;;;;;;-1.63;80.24;99423.78;4484197;32;20122;-67
2023/03/29 02:43:05;;;;;;;1.70;1.20;;;;;;;-1.67;80.99;99435.03;4484317;32;20092;-67
2023/03/29 02:45:34;;;;;;;3.60;1.80;;;;;;;-1.66;80.91;99429.00;4484426;32;20119;-67
2023/03/29 02:48:05;;;;;;;7.43;1.48;;;;;;;-1.67;80.84;99437.59;4485657;31;20172;-67
2023/03/29 02:50:37;;;;;;;4.65;1.92;;;;;;;-1.64;80.79;99437.50;4484157;32;20135;-67
2023/03/29 02:53:08;;;;;;;2.83;1.52;;;;;;;-1.70;81.08;99436.84;4484271;32;20487;-67
2023/03/29 02:55:37;;;;;;;1.70;1.08;;;;;;;-1.71;81.05;99436.00;4484100;32;20518;-67
2023/03/29 02:58:07;;;;;;;2.95;1.40;;;;;;;-1.75;81.41;99441.28;4485350;31;20434;-67
2023/03/29 03:00:37;;;;;;;3.85;1.55;;;;;;;-1.80;81.60;99429.41;4484555;32;20802;-67
2023/03/29 03:03:06;;;;;;;2.87;1.70;;;;;;;-1.85;81.84;99440.69;4483856;32;20165;-67
2023/03/29 03:05:34;;;;;;;3.78;1.73;;;;;;;-1.85;81.79;99443.25;4485244;31;20114;-67
2023/03/29 03:08:03;;;;;;;3.72;1.80;;;;;;;-1.91;81.48;99448.56;4484178;32;20109;-67
2023/03/29 03:10:32;;;;;;;2.75;1.55;;;;;;;-1.92;81.81;99452.00;4485224;32;20176;-67
2023/03/29 03:13:00;;;;;;;2.28;1.35;;;;;;;-1.89;81.88;99446.78;4485336;31;20112;-67
2023/03/29 03:15:29;;;;;;;5.20;2.15;;;;;;;-1.98;82.89;99443.59;4485456;31;20207;-67
2023/03/29 03:17:57;;;;;;;4.18;2.03;;;;;;;-2.00;83.07;99449.66;4485262;32;20160;-67
2023/03/29 03:20:25;;;;;;;2.65;1.70;;;;;;;-2.11;83.78;99455.06;4485009;31;20105;-67
2023/03/29 03:22:56;;;;;;;2.17;1.40;;;;;;;-2.13;83.72;99459.41;4485261;32;20088;-67
2023/03/29 03:25:23;;;;;;;4.22;1.98;;;;;;;-2.24;84.64;99452.00;4485036;31;20153;-67
2023/03/29 03:27:51;;;;;;;2.90;1.52;;;;;;;-2.28;86.73;99449.53;4485319;31;20123;-67
2023/03/29 03:30:19;;;;;;;2.10;1.50;;;;;;;-2.33;89.37;99453.06;4485127;31;20159;-67
2023/03/29 03:32:48;;;;;;;5.53;1.55;;;;;;;-2.45;89.83;99463.66;4484999;32;20114;-67
2023/03/29 03:35:17;;;;;;;2.35;1.35;;;;;;;-2.49;89.69;99454.31;4485366;31;20092;-67
2023/03/29 03:37:45;;;;;;;4.53;1.75;;;;;;;-2.52;90.06;99456.97;4485172;31;20176;-67
2023/03/29 03:40:15;;;;;;;4.40;1.50;;;;;;;-2.50;90.25;99461.19;4485354;32;20108;-67
2023/03/29 03:42:42;;;;;;;2.87;1.60;;;;;;;-2.56;90.56;99460.47;4485208;31;20096;-67
2023/03/29 03:45:11;;;;;;;4.00;1.20;;;;;;;-2.64;93.06;99472.66;4485151;31;20096;-67
2023/03/29 03:47:39;;;;;;;4.12;1.70;;;;;;;-2.55;91.41;99477.56;4485206;31;20119;-67
2023/03/29 03:50:10;;;;;;;1.55;1.30;;;;;;;-2.60;90.72;99475.13;4485121;31;20168;-67
2023/03/29 03:52:37;;;;;;;2.37;1.50;;;;;;;-2.50;90.10;99471.44;4485106;31;20236;-67
2023/03/29 03:55:07;;;;;;;5.53;1.65;;;;;;;-2.47;90.09;99475.66;4485209;31;20122;-67
2023/03/29 03:57:38;;;;;;;4.03;1.62;;;;;;;-2.48;90.23;99478.25;4485145;31;20089;-66
2023/03/29 04:00:18;;;;;;;3.78;1.65;;;;;;;-2.47;90.26;99474.81;4484910;32;20085;-67
2023/03/29 04:02:47;;;;;;;2.53;1.50;;;;;;;-2.37;90.19;99476.28;4484573;31;20084;-66
2023/03/29 04:05:15;;;;;;;3.20;1.70;;;;;;;-2.32;90.05;99477.00;4484685;31;20191;-66
2023/03/29 04:07:43;;;;;;;2.87;1.48;;;;;;;-2.34;90.12;99477.03;4484362;32;20097;-66
2023/03/29 04:10:12;;;;;;;5.55;1.65;;;;;;;-2.34;90.75;99466.75;4483623;31;20092;-66
2023/03/29 04:12:39;;;;;;;2.42;1.33;;;;;;;-2.34;91.67;99469.34;4484538;31;20093;-66
2023/03/29 04:15:09;;;;;;;3.15;1.50;;;;;;;-2.23;91.11;99463.91;4484811;32;20107;-66
2023/03/29 04:17:37;;;;;;;4.72;2.03;;;;;;;-2.19;90.87;99464.69;4484867;31;20088;-66
2023/03/29 04:20:12;;;;;;;3.12;1.77;;;;;;;-2.17;90.77;99470.62;4484035;31;20466;-66
2023/03/29 04:22:40;;;;;;;5.18;2.20;;;;;;;-2.18;91.18;99466.38;4484483;31;20595;-66
2023/03/29 04:25:09;;;;;;;5.07;1.87;;;;;;;-2.17;92.16;99468.06;4484568;32;20123;-66
2023/03/29 04:27:39;;;;;;;4.78;2.30;;;;;;;-2.19;93.39;99467.28;4484652;31;20151;-67
2023/03/29 04:30:09;;;;;;;3.70;2.05;;;;;;;-2.05;91.82;99475.44;4484261;31;20393;-66
2023/03/29 04:32:37;;;;;;;3.90;1.50;;;;;;;-2.00;91.18;99476.19;4484868;31;20119;-66
2023/03/29 04:35:05;;;;;;;4.10;1.85;;;;;;;-1.91;90.18;99481.94;4484688;31;20626;-66
2023/03/29 04:37:33;;;;;;;5.35;2.40;;;;;;;-1.83;88.78;99491.13;4484543;31;20096;-66
2023/03/29 04:40:00;;;;;;;3.12;1.58;;;;;;;-1.75;88.49;99485.78;4484474;31;20397;-66
2023/03/29 04:42:29;;;;;;;2.70;1.67;;;;;;;-1.72;88.34;99490.00;4484290;31;20175;-66
2023/03/29 04:44:59;;;;;;;14.55;5.25;;;;;;;-1.69;88.58;99493.31;4484315;31;20072;-66
2023/03/29 04:47:28;;;;;;;4.45;1.87;;;;;;;-1.66;88.71;99488.09;4484613;32;20157;-66
2023/03/29 04:49:58;;;;;;;3.17;1.90;;;;;;;-1.63;89.30;99489.75;4484366;31;20106;-67
2023/03/29 04:52:31;;;;;;;3.83;1.90;;;;;;;-1.61;89.80;99499.06;4484201;31;20088;-66
2023/03/29 04:55:00;;;;;;;5.15;2.37;;;;;;;-1.47;88.75;99495.28;4484444;32;20072;-66
2023/03/29 04:57:30;;;;;;;3.03;1.70;;;;;;;-1.32;89.74;99494.88;4481611;31;20101;-66
2023/03/29 04:59:57;;;;;;;3.28;2.17;;;;;;;-1.16;88.35;99494.41;4477322;31;20116;-66
2023/03/29 05:02:31;;;;;;;2.67;1.67;;;;;;;-1.07;86.91;99491.56;4482049;32;20104;-66
2023/03/29 05:04:58;;;;;;;4.28;2.03;;;;;;;-0.97;85.97;99490.41;4479087;31;20067;-66
2023/03/29 05:07:27;;;;;;;5.32;2.12;;;;;;;-0.99;85.78;99501.62;4479779;31;20104;-66
2023/03/29 05:09:54;;;;;;;5.15;1.92;;;;;;;-1.00;85.52;99492.22;4477262;31;84225;-66
2023/03/29 05:12:21;;;;;;;3.78;2.00;;;;;;;-0.89;84.38;99492.75;4476465;31;20176;-66
2023/03/29 05:14:50;;;;;;;5.53;2.92;;;;;;;-0.85;84.17;99496.03;4476725;31;20250;-66
2023/03/29 05:17:17;;;;;;;7.87;3.17;;;;;;;-0.78;84.75;99489.84;4476686;31;20101;-66
2023/03/29 05:19:45;;;;;;;4.57;2.33;;;;;;;-0.73;84.31;99483.66;4477319;31;20130;-66
2023/03/29 05:22:14;;;;;;;4.43;2.62;;;;;;;-0.59;83.81;99490.06;4481222;31;20404;-66
2023/03/29 05:24:42;;;;;;;3.97;2.25;;;;;;;-0.40;83.35;99490.34;4482207;32;20445;-67
2023/03/29 05:27:09;;;;;;;4.28;2.28;;;;;;;-0.09;82.81;99489.31;4484560;31;20571;-67
2023/03/29 05:29:36;;;;;;;3.90;2.35;;;;;;;-0.13;81.73;99486.00;4479982;31;20089;-67
2023/03/29 05:32:05;;;;;;;3.67;2.00;;;;;;;-0.03;80.32;99489.09;4477106;32;20093;-67
2023/03/29 05:34:33;;;;;;;6.45;2.60;;;;;;;0.01;80.54;99488.09;4485991;31;20100;-67
2023/03/29 05:37:01;;;;;;;6.07;2.15;;;;;;;0.03;80.67;99483.75;4480065;32;20388;-68
2023/03/29 05:39:32;;;;;;;6.12;2.40;;;;;;;0.22;79.59;99483.09;4480530;31;20616;-67
2023/03/29 05:42:03;;;;;;;4.50;2.30;;;;;;;0.24;78.81;99482.13;4481554;31;20096;-66
2023/03/29 05:44:30;;;;;;;3.67;2.08;;;;;;;0.29;78.37;99489.72;4482069;31;20561;-67
2023/03/29 05:46:58;;;;;;;4.18;2.60;;;;;;;0.36;79.16;99486.03;4479518;32;20123;-67
2023/03/29 05:49:25;;;;;;;3.33;1.62;;;;;;;0.44;78.62;99489.19;4468960;31;20776;-67
2023/03/29 05:51:55;;;;;;;3.22;1.58;;;;;;;0.48;78.37;99484.75;4467110;32;20172;-66
2023/03/29 05:54:24;;;;;;;4.53;2.50;;;;;;;0.60;77.18;99496.34;4466248;32;21360;-68
2023/03/29 05:56:52;;;;;;;2.95;2.00;;;;;;;0.65;75.71;99497.00;4469059;32;20527;-69
2023/03/29 05:59:19;;;;;;;4.03;1.95;;;;;;;0.70;75.76;99495.12;4469312;31;20096;-69
2023/03/29 06:01:47;;;;;;;6.45;2.55;;;;;;;0.91;75.32;99500.34;4474441;31;20104;-68
2023/03/29 06:04:14;;;;;;;7.30;2.28;;;;;;;1.09;74.76;99496.22;4472662;32;20116;-67
2023/03/29 06:06:42;;;;;;;4.30;1.67;;;;;;;1.23;73.99;99491.41;4469192;32;20459;-68
2023/03/29 06:09:10;;;;;;;4.30;2.17;;;;;;;1.36;73.49;99491.72;4468233;31;20736;-68
2023/03/29 06:11:38;;;;;;;3.78;1.90;;;;;;;1.53;73.61;99494.50;4469894;31;20092;-68
2023/03/29 06:14:06;;;;;;;3.55;2.22;;;;;;;1.69;72.97;99501.59;4468992;31;20127;-68
2023/03/29 06:16:35;;;;;;;4.10;2.20;;;;;;;2.01;72.26;99504.59;4470170;31;20101;-67
2023/03/29 06:19:02;;;;;;;4.35;1.67;;;;;;;2.01;69.16;99504.59;4469501;31;20105;-69
2023/03/29 06:21:30;;;;;;;6.97;2.70;;;;;;;2.23;68.68;99510.53;4470178;31;20115;-68
2023/03/29 06:23:58;;;;;;;4.30;2.20;;;;;;;2.28;66.95;99516.34;4472043;31;20088;-68
2023/03/29 06:26:26;;;;;;;4.10;2.03;;;;;;;2.26;66.37;99510.41;4476081;31;20112;-68
2023/03/29 06:28:53;;;;;;;4.85;2.08;;;;;;;2.43;64.62;99512.25;4473435;31;20136;-69
2023/03/29 06:31:21;;;;;;;3.08;1.80;;;;;;;2.52;64.59;99502.41;4467612;32;20390;-69
2023/03/29 06:33:49;;;;;;;4.47;2.10;;;;;;;2.62;63.95;99517.47;4468920;31;20170;-69
2023/03/29 06:36:18;;;;;;;5.32;1.98;;;;;;;2.47;65.20;99515.56;4470511;32;20100;-69
2023/03/29 06:38:46;;;;;;;5.57;1.95;;;;;;;2.53;65.48;99517.88;4470448;31;20148;-69
2023/03/29 06:41:14;;;;;;;4.20;1.75;;;;;;;2.75;64.32;99519.50;4468114;32;20096;-69
2023/03/29 06:43:43;;;;;;;2.08;1.65;;;;;;;2.86;64.61;99516.41;4466549;32;20110;-70
2023/03/29 06:46:13;;;;;;;3.45;1.92;;;;;;;2.84;62.52;99516.47;4470929;31;20100;-71
2023/03/29 06:48:41;;;;;;;6.30;1.95;;;;;;;3.01;62.01;99511.38;4473449;31;20899;-70
2023/03/29 06:51:09;;;;;;;6.30;1.98;;;;;;;3.05;61.45;99513.84;4472006;32;20101;-69
2023/03/29 06:53:38;;;;;;;4.65;2.17;;;;;;;2.82;62.98;99520.91;4471170;31;20761;-71
2023/03/29 06:56:07;;;;;;;4.40;2.20;;;;;;;2.92;64.00;99524.75;4469084;31;20497;-70
2023/03/29 06:58:36;;;;;;;6.22;2.25;;;;;;;3.03;61.49;99519.09;4469357;31;20148;-70
2023/03/29 07:01:05;;;;;;;5.93;2.35;;;;;;;3.06;61.01;99520.66;4468600;31;20117;-68
2023/03/29 07:03:38;;;;;;;4.85;2.70;;;;;;;3.11;61.37;99524.72;4470526;31;20092;-69
2023/03/29 07:06:08;;;;;;;4.57;2.67;;;;;;;3.22;62.43;99537.16;4472636;31;20233;-70
2023/03/29 07:08:42;;;;;;;4.50;2.28;;;;;;;3.22;60.33;99539.75;4469235;31;20547;-71
2023/03/29 07:11:11;;;;;;;7.62;2.62;;;;;;;3.27;59.73;99540.41;4468700;31;20177;-68
2023/03/29 07:13:41;;;;;;;4.53;2.45;;;;;;;3.29;59.95;99545.50;4469769;31;20096;-68
2023/03/29 07:16:11;;;;;;;3.95;2.03;;;;;;;3.45;58.83;99548.19;4471933;32;20135;-69
2023/03/29 07:18:40;;;;;;;7.25;2.72;;;;;;;3.67;58.56;99553.22;4474386;31;20243;-71
2023/03/29 07:21:09;;;;;;;4.20;2.28;;;;;;;4.00;58.10;99557.66;4473859;31;20096;-70
2023/03/29 07:23:37;;;;;;;5.50;2.55;;;;;;;4.05;57.30;99561.69;4471805;31;20784;-71
2023/03/29 07:26:06;;;;;;;4.25;2.35;;;;;;;3.98;57.52;99564.66;4472144;31;20173;-69
2023/03/29 07:28:36;;;;;;;5.25;2.62;;;;;;;4.20;58.02;99564.44;4469700;31;20096;-69
2023/03/29 07:31:05;;;;;;;3.15;1.90;;;;;;;4.53;57.23;99566.25;4469502;31;20548;-69
2023/03/29 07:33:33;;;;;;;5.47;2.37;;;;;;;4.56;54.52;99569.50;4470871;31;20420;-71
2023/03/29 07:36:05;;;;;;;4.37;2.15;;;;;;;4.64;55.06;99565.69;4469711;31;20160;-71
2023/03/29 07:38:33;;;;;;;3.80;1.70;;;;;;;4.88;50.60;99561.81;4469233;31;20096;-70
2023/03/29 07:41:06;;;;;;;4.00;2.03;;;;;;;5.29;52.88;99561.31;4471087;31;20500;-71
2023/03/29 07:43:35;;;;;;;5.50;2.08;;;;;;;5.33;52.48;99562.84;4472593;31;20119;-70
2023/03/29 07:46:03;;;;;;;2.67;1.67;;;;;;;5.62;50.96;99562.16;4466801;31;20105;-70
2023/03/29 07:48:32;;;;;;;5.20;2.17;;;;;;;5.54;50.57;99565.19;4470202;32;20124;-70
2023/03/29 07:51:01;;;;;;;6.03;2.08;;;;;;;5.60;49.75;99569.19;4471238;31;20096;-70
2023/03/29 07:53:29;;;;;;;4.22;1.90;;;;;;;5.45;49.85;99561.34;4466210;31;20137;-71
2023/03/29 07:55:56;;;;;;;5.12;2.00;;;;;;;5.35;47.11;99557.56;4472095;31;20157;-70
2023/03/29 07:58:25;;;;;;;2.80;1.52;;;;;;;5.50;47.93;99564.50;4472086;31;20167;-69
2023/03/29 08:00:52;;;;;;;2.92;1.37;;;;;;;5.62;47.58;99562.16;4470123;31;20148;-69
2023/03/29 08:03:21;;;;;;;5.45;1.80;;;;;;;5.81;46.78;99562.81;4466909;31;20097;-68
2023/03/29 08:05:48;;;;;;;3.03;1.85;;;;;;;6.07;48.58;99563.09;4473418;31;20093;-70
2023/03/29 08:08:16;;;;;;;5.97;2.17;;;;;;;5.88;47.84;99568.47;4470807;31;20112;-70
2023/03/29 08:10:45;;;;;;;2.25;1.27;;;;;;;6.20;47.39;99560.59;4468029;31;20104;-68
2023/03/29 08:13:12;;;;;;;10.45;2.28;;;;;;;6.27;44.92;99561.94;4474436;32;20107;-68
2023/03/29 08:15:44;;;;;;;5.90;1.50;;;;;;;6.13;46.79;99557.53;4472484;32;20147;-68
2023/03/29 08:18:17;;;;;;;2.20;1.45;;;;;;;6.04;43.40;99564.09;4467334;32;20088;-68
2023/03/29 08:20:44;;;;;;;3.12;1.20;;;;;;;6.43;43.27;99559.25;4470011;31;20109;-67
2023/03/29 08:23:11;;;;;;;5.87;2.45;;;;;;;6.09;42.76;99560.41;4469640;31;20172;-67
2023/03/29 08:25:41;;;;;;;7.07;1.92;;;;;;;6.02;45.25;99560.75;4473765;31;20172;-67
2023/03/29 08:28:08;;;;;;;1.70;1.25;;;;;;;6.06;47.98;99560.56;4472722;32;20932;-67
2023/03/29 08:30:36;;;;;;;3.30;1.37;;;;;;;6.22;46.09;99562.19;4470884;31;20105;-66
2023/03/29 08:33:04;;;;;;;2.95;1.37;;;;;;;5.83;44.51;99555.75;4471952;31;20145;-66
2023/03/29 08:35:32;;;;;;;5.70;1.48;;;;;;;5.91;44.70;99551.87;4470894;31;20153;-66
2023/03/29 08:38:01;;;;;;;1.62;1.05;;;;;;;5.96;47.86;99549.84;4471023;31;20479;-66
2023/03/29 08:40:29;;;;;;;2.75;1.55;;;;;;;6.76;48.49;99542.53;4470478;31;20097;-66
2023/03/29 08:43:12;;;;;;;3.95;1.75;;;;;;;6.42;46.11;99556.72;4470185;31;20218;-66
2023/03/29 08:45:58;;;;;;;8.48;1.77;;;;;;;5.81;46.66;99547.19;4467420;31;20170;-65
2023/03/29 08:48:30;;;;;;;3.22;1.30;;;;;;;6.11;45.41;99545.53;4465100;31;20092;-65
2023/03/29 08:51:05;;;;;;;2.85;1.90;;;;;;;5.95;45.95;99543.81;4469745;31;20111;-65
2023/03/29 08:53:42;;;;;;;2.83;1.12;;;;;;;5.98;46.14;99545.41;4467288;31;20141;-65
2023/03/29 08:56:17;;;;;;;2.80;1.40;;;;;;;6.04;46.34;99534.63;4472404;32;20109;-65
2023/03/29 08:58:46;;;;;;;6.40;1.37;;;;;;;6.29;46.29;99541.03;4467105;32;20097;-66
2023/03/29 09:01:14;;;;;;;2.80;1.20;;;;;;;6.46;45.44;99533.03;4469202;32;20192;-67
2023/03/29 09:04:03;;;;;;;2.97;1.52;;;;;;;6.45;45.09;99533.12;4467149;31;20579;-67
2023/03/29 09:06:33;;;;;;;7.72;1.60;;;;;;;6.73;45.70;99525.31;4468384;32;20096;-67
2023/03/29 09:09:02;;;;;;;2.10;1.00;;;;;;;7.27;48.51;99527.19;4472342;32;20088;-67
2023/03/29 09:11:53;;;;;;;1.98;1.17;;;;;;;7.13;44.51;99531.59;4473781;31;20164;-67
2023/03/29 09:14:35;;;;;;;2.33;1.17;;;;;;;6.80;43.52;99528.41;4472018;32;20124;-66
2023/03/29 09:17:20;;;;;;;2.83;1.30;;;;;;;6.80;45.65;99528.41;4473568;32;20402;-66
2023/03/29 09:19:53;;;;;;;3.23;1.33;;;;;;;6.69;42.90;99518.66;4466448;32;20150;-66
2023/03/29 09:23:06;;;;;;;3.20;1.60;;;;;;;7.27;44.23;99521.97;4469998;31;20974;-67
2023/03/29 09:25:58;;;;;;;2.08;1.23;;;;;;;7.67;45.19;99515.13;4419433;32;20185;-66
2023/03/29 09:28:29;;;;;;;2.50;1.15;;;;;;;8.08;47.42;99516.78;4412930;32;20994;-67
2023/03/29 09:31:15;;;;;;;2.60;1.62;;;;;;;8.56;46.57;99522.25;4413103;32;20161;-67
2023/03/29 09:33:47;;;;;;;2.92;1.60;;;;;;;8.64;42.70;99522.53;4419566;32;20097;-66
2023/03/29 09:36:43;;;;;;;5.18;1.50;;;;;;;7.83;40.47;99513.19;4408610;32;20114;-66
2023/03/29 09:39:13;;;;;;;4.45;1.30;;;;;;;7.95;41.15;99511.56;4412752;32;20135;-65
2023/03/29 09:41:54;;;;;;;3.37;1.90;;;;;;;7.79;41.57;99501.28;4417303;32;20101;-66
2023/03/29 09:44:31;;;;;;;3.83;1.37;;;;;;;7.78;45.98;99502.22;4409430;32;20210;-67
2023/03/29 09:47:08;;;;;;;2.92;1.60;;;;;;;7.82;42.22;99498.47;4401319;32;20121;-66
2023/03/29 09:49:39;;;;;;;3.10;1.67;;;;;;;8.16;41.98;99496.22;4423317;32;20125;-66
2023/03/29 09:52:11;;;;;;;4.32;1.77;;;;;;;8.88;43.28;99504.31;4420910;32;20152;-66
2023/03/29 09:54:42;;;;;;;3.87;1.75;;;;;;;8.39;41.76;99501.62;4411787;32;20839;-67
2023/03/29 09:57:22;;;;;;;4.00;1.83;;;;;;;8.21;41.41;99493.31;4409231;32;20117;-68
2023/03/29 09:59:51;;;;;;;5.05;1.50;;;;;;;8.98;44.21;99499.31;4452551;32;20102;-68
2023/03/29 10:02:19;;;;;;;3.80;1.90;;;;;;;9.17;42.45;99498.81;4468288;31;20172;-67
2023/03/29 10:04:54;;;;;;;4.28;2.12;;;;;;;9.02;42.16;99487.69;4469202;32;20469;-67
2023/03/29 10:07:22;;;;;;;2.75;1.58;;;;;;;9.19;43.89;99475.16;4478828;31;20412;-66
2023/03/29 10:09:51;;;;;;;5.07;1.55;;;;;;;9.06;42.09;99473.44;4480129;31;20127;-67
2023/03/29 10:12:19;;;;;;;3.58;1.55;;;;;;;8.58;42.40;99482.97;4479836;31;20120;-66
2023/03/29 10:14:52;;;;;;;4.20;1.65;;;;;;;8.52;44.74;99471.16;4481005;31;20120;-67
2023/03/29 10:17:21;;;;;;;2.30;1.23;;;;;;;9.09;47.61;99468.97;4475856;31;20213;-68
2023/03/29 10:19:55;;;;;;;3.58;1.67;;;;;;;9.21;44.21;99468.88;4481128;31;20112;-68
2023/03/29 10:22:26;;;;;;;3.55;1.62;;;;;;;8.70;42.99;99474.28;4482716;31;20611;-67
2023/03/29 10:24:55;;;;;;;5.60;2.00;;;;;;;8.21;42.17;99472.44;4483052;31;20106;-67
2023/03/29 10:27:28;;;;;;;2.30;1.52;;;;;;;8.46;42.14;99466.38;4474143;31;20166;-67
2023/03/29 10:29:59;;;;;;;4.00;1.37;;;;;;;8.59;40.60;99472.41;4479260;32;20382;-67
2023/03/29 10:32:37;;;;;;;2.50;1.50;;;;;;;8.65;40.74;99466.75;4477341;31;20518;-68
2023/03/29 10:35:27;;;;;;;3.97;1.60;;;;;;;9.11;44.59;99461.81;4479309;31;20159;-67
2023/03/29 10:37:57;;;;;;;2.47;1.48;;;;;;;9.33;42.09;99459.31;4476248;31;20147;-67
2023/03/29 10:40:24;;;;;;;3.85;1.40;;;;;;;9.06;41.15;99451.72;4479235;31;20084;-66
2023/03/29 10:42:52;;;;;;;2.83;1.50;;;;;;;9.30;46.75;99443.03;4480140;31;20550;-65
2023/03/29 10:45:33;;;;;;;2.75;1.50;;;;;;;9.56;46.42;99443.72;4476692;32;20101;-66
2023/03/29 10:48:02;;;;;;;3.08;1.48;;;;;;;9.97;45.18;99442.38;4476418;31;20115;-66
2023/03/29 10:50:36;;;;;;;1.73;1.40;;;;;;;10.21;45.12;99437.06;4481705;31;20096;-66
2023/03/29 10:53:25;;;;;;;2.62;1.60;;;;;;;10.17;44.39;99434.78;4480912;31;20145;-67
2023/03/29 10:56:12;;;;;;;3.42;1.60;;;;;;;10.27;46.76;99441.81;4481882;32;20141;-66
2023/03/29 10:58:48;;;;;;;2.45;1.60;;;;;;;10.12;42.63;99446.44;4478393;32;20107;-65
2023/03/29 11:01:39;;;;;;;3.70;1.50;;;;;;;10.35;42.42;99441.25;4480916;31;20442;-65
2023/03/29 11:04:32;;;;;;;5.25;1.73;;;;;;;10.54;44.10;99442.47;4481487;31;20140;-65
2023/03/29 11:07:22;;;;;;;3.80;1.95;;;;;;;10.06;38.67;99443.47;4432286;32;20125;-65
2023/03/29 11:10:28;;;;;;;2.70;1.70;;;;;;;9.67;42.29;99429.84;4431565;32;20101;-66
2023/03/29 11:13:03;;;;;;;1.87;1.35;;;;;;;9.59;42.86;99433.84;4425044;32;20144;-66
2023/03/29 11:15:48;;;;;;;2.17;1.60;;;;;;;9.89;42.46;99427.28;4417675;32;20173;-67
2023/03/29 11:18:38;;;;;;;4.18;1.67;;;;;;;10.05;44.94;99429.56;4429884;32;20221;-67
2023/03/29 11:21:08;;;;;;;4.72;1.98;;;;;;;9.69;43.07;99420.94;4430104;32;20277;-67
2023/03/29 11:23:42;;;;;;;6.53;2.10;;;;;;;10.30;45.75;99415.41;4431191;32;20144;-67
2023/03/29 11:26:15;;;;;;;3.95;1.80;;;;;;;10.18;40.98;99426.00;4429934;32;20138;-66
2023/03/29 11:28:52;;;;;;;4.32;1.67;;;;;;;9.83;42.42;99425.12;4431416;32;20499;-66
2023/03/29 11:31:50;;;;;;;3.00;1.70;;;;;;;10.27;44.35;99415.63;4430216;32;20170;-66
2023/03/29 11:34:39;;;;;;;1.90;1.40;;;;;;;10.50;44.10;99407.81;4432955;32;20118;-67
2023/03/29 11:37:22;;;;;;;4.25;2.05;;;;;;;10.69;40.89;99406.34;4433028;32;20121;-66
2023/03/29 11:40:10;;;;;;;2.90;1.65;;;;;;;10.06;39.78;99402.41;4429121;32;20140;-66
2023/03/29 11:42:41;;;;;;;3.47;2.12;;;;;;;10.28;43.46;99401.59;4426508;32;20144;-67
2023/03/29 11:45:14;;;;;;;8.00;2.60;;;;;;;10.52;42.08;99407.69;4472057;31;20185;-67
2023/03/29 11:47:43;;;;;;;3.97;2.10;;;;;;;10.84;43.58;99405.13;4477398;32;20092;-67
2023/03/29 11:50:22;;;;;;;4.25;2.03;;;;;;;11.39;44.71;99402.44;4476719;31;20474;-67
2023/03/29 11:52:56;;;;;;;6.22;3.00;;;;;;;11.35;41.66;99395.75;4478612;31;20477;-67
2023/03/29 11:55:26;;;;;;;4.35;2.00;;;;;;;11.45;42.36;99399.28;4478517;31;20127;-67
2023/03/29 11:58:14;;;;;;;4.60;2.30;;;;;;;10.44;41.15;99382.09;4479274;31;20529;-67